createdAt,value
2019-03-19T12:57:43.863Z,9.25
2019-03-19T13:00:17.438Z,9.23
2019-03-19T13:02:46.396Z,9.06
2019-03-19T13:05:15.356Z,8.97
2019-03-19T13:07:44.380Z,8.97
2019-03-19T13:10:16.139Z,9.14
2019-03-19T13:12:45.263Z,9.21
2019-03-19T13:15:14.706Z,9.34
2019-03-19T13:17:43.803Z,9.02
2019-03-19T13:20:13.278Z,9.07
2019-03-19T13:22:42.169Z,9.12
2019-03-19T13:25:13.068Z,9.06
2019-03-19T13:27:43.618Z,8.94
2019-03-19T13:30:14.607Z,8.77
2019-03-19T13:32:43.561Z,8.74
2019-03-19T13:35:13.039Z,8.73
2019-03-19T13:37:43.971Z,8.63
2019-03-19T13:40:14.475Z,8.72
2019-03-19T13:42:43.395Z,9.03
2019-03-19T13:45:13.364Z,9.07
2019-03-19T13:47:42.330Z,9.31
2019-03-19T13:50:11.519Z,9.50
2019-03-19T13:52:40.401Z,9.57
2019-03-19T13:55:11.073Z,9.48
2019-03-19T13:57:40.036Z,9.46
2019-03-19T14:00:10.277Z,9.36
2019-03-19T14:02:39.347Z,9.23
2019-03-19T14:05:08.849Z,9.15
2019-03-19T14:07:38.137Z,9.01
2019-03-19T14:10:07.900Z,8.92
2019-03-19T14:12:37.916Z,8.79
2019-03-19T14:15:08.197Z,8.69
2019-03-19T14:17:37.150Z,8.57
2019-03-19T14:20:07.614Z,8.56
2019-03-19T14:22:36.679Z,8.53
2019-03-19T14:25:05.972Z,8.56
2019-03-19T14:27:34.828Z,8.52
2019-03-19T14:30:03.783Z,8.63
2019-03-19T14:32:32.733Z,8.70
2019-03-19T14:35:01.913Z,8.93
2019-03-19T14:37:31.137Z,9.19
2019-03-19T14:40:00.412Z,9.42
2019-03-19T14:42:31.383Z,9.67
2019-03-19T14:45:00.515Z,9.84
2019-03-19T14:47:29.487Z,9.62
2019-03-19T14:50:00.602Z,9.73
2019-03-19T14:52:29.600Z,9.64
2019-03-19T14:55:03.248Z,9.37
2019-03-19T14:57:31.995Z,9.20
2019-03-19T15:00:01.047Z,9.18
2019-03-19T15:02:29.966Z,9.06
2019-03-19T15:04:58.933Z,8.85
2019-03-19T15:07:28.000Z,8.82
2019-03-19T15:09:56.956Z,8.73
2019-03-19T15:12:25.920Z,8.57
2019-03-19T15:14:54.909Z,8.39
2019-03-19T15:17:23.953Z,8.35
2019-03-19T15:19:53.163Z,8.25
2019-03-19T15:22:32.205Z,8.20
2019-03-19T15:24:52.942Z,8.13
2019-03-19T15:27:21.866Z,8.08
2019-03-19T15:29:50.679Z,7.92
2019-03-19T15:32:19.667Z,7.87
2019-03-19T15:34:48.394Z,7.93
2019-03-19T15:37:17.281Z,7.98
2019-03-19T15:39:46.251Z,7.99
2019-03-19T15:42:15.029Z,8.00
2019-03-19T15:44:44.096Z,8.00
2019-03-19T15:47:13.122Z,8.01
2019-03-19T15:49:42.153Z,8.01
2019-03-19T15:52:11.225Z,7.94
2019-03-19T15:54:40.111Z,7.97
2019-03-19T15:57:09.298Z,7.97
2019-03-19T15:59:38.800Z,7.97
2019-03-19T16:02:08.015Z,8.01
2019-03-19T16:04:37.261Z,8.01
2019-03-19T16:07:09.599Z,8.00
2019-03-19T16:09:38.628Z,7.99
2019-03-19T16:12:07.611Z,7.99
2019-03-19T16:14:36.686Z,7.97
2019-03-19T16:17:05.710Z,7.94
2019-03-19T16:19:41.093Z,7.90
2019-03-19T16:22:10.184Z,7.79
2019-03-19T16:24:39.336Z,7.73
2019-03-19T16:27:08.327Z,7.57
2019-03-19T16:29:37.464Z,7.57
2019-03-19T16:32:06.574Z,7.59
2019-03-19T16:34:35.682Z,7.56
2019-03-19T16:37:04.638Z,7.46
2019-03-19T16:39:35.293Z,7.45
2019-03-19T16:42:04.315Z,7.40
2019-03-19T16:44:34.366Z,7.37
2019-03-19T16:47:03.316Z,7.35
2019-03-19T16:49:32.294Z,7.32
2019-03-19T16:52:01.241Z,7.24
2019-03-19T16:54:30.197Z,7.22
2019-03-19T16:57:00.430Z,7.17
2019-03-19T16:59:29.396Z,7.16
2019-03-19T17:02:01.678Z,7.14
2019-03-19T17:04:29.329Z,7.11
2019-03-19T17:06:58.317Z,7.05
2019-03-19T17:09:27.396Z,6.99
2019-03-19T17:11:56.416Z,6.95
2019-03-19T17:14:25.267Z,6.92
2019-03-19T17:16:56.898Z,6.89
2019-03-19T17:19:26.890Z,6.84
2019-03-19T17:21:57.128Z,6.80
2019-03-19T17:24:29.058Z,6.78
2019-03-19T17:27:04.378Z,6.75
2019-03-19T17:29:34.435Z,6.67
2019-03-19T17:32:12.561Z,6.59
2019-03-19T17:34:34.956Z,6.50
2019-03-19T17:37:03.986Z,6.46
2019-03-19T17:39:33.097Z,6.42
2019-03-19T17:42:03.992Z,6.36
2019-03-19T17:44:32.910Z,6.36
2019-03-19T17:47:04.030Z,6.31
2019-03-19T17:49:36.058Z,6.30
2019-03-19T17:52:05.127Z,6.28
2019-03-19T17:54:34.271Z,6.26
2019-03-19T17:57:03.156Z,6.24
2019-03-19T17:59:32.672Z,6.24
2019-03-19T18:02:01.662Z,6.25
2019-03-19T18:04:30.546Z,6.21
2019-03-19T18:06:59.510Z,6.21
2019-03-19T18:09:28.940Z,6.18
2019-03-19T18:11:57.817Z,6.15
2019-03-19T18:14:27.953Z,6.13
2019-03-19T18:16:56.908Z,6.07
2019-03-19T18:19:25.866Z,6.01
2019-03-19T18:21:54.789Z,6.01
2019-03-19T18:24:24.815Z,6.00
2019-03-19T18:26:53.911Z,5.95
2019-03-19T18:29:23.455Z,5.93
2019-03-19T18:31:56.193Z,5.87
2019-03-19T18:34:26.647Z,5.87
2019-03-19T18:36:55.647Z,5.75
2019-03-19T18:39:47.758Z,5.82
2019-03-19T18:42:16.967Z,5.81
2019-03-19T18:44:46.149Z,5.79
2019-03-19T18:47:17.523Z,5.74
2019-03-19T18:49:46.957Z,5.75
2019-03-19T18:52:28.078Z,5.75
2019-03-19T18:54:57.104Z,5.75
2019-03-19T18:57:28.712Z,5.73
2019-03-19T18:59:57.624Z,5.73
2019-03-19T19:02:26.658Z,5.68
2019-03-19T19:04:55.690Z,5.61
2019-03-19T19:07:25.669Z,5.57
2019-03-19T19:09:54.626Z,5.56
2019-03-19T19:12:23.753Z,5.53
2019-03-19T19:14:55.908Z,5.52
2019-03-19T19:17:25.712Z,5.51
2019-03-19T19:19:54.901Z,5.49
2019-03-19T19:22:25.549Z,5.49
2019-03-19T19:24:58.376Z,5.45
2019-03-19T19:27:27.671Z,5.43
2019-03-19T19:29:56.967Z,5.42
2019-03-19T19:32:26.142Z,5.42
2019-03-19T19:34:55.533Z,5.41
2019-03-19T19:37:24.685Z,5.41
2019-03-19T19:39:53.774Z,5.40
2019-03-19T19:42:22.631Z,5.39
2019-03-19T19:44:51.995Z,5.38
2019-03-19T19:47:21.165Z,5.36
2019-03-19T19:49:50.237Z,5.36
2019-03-19T19:52:19.333Z,5.36
2019-03-19T19:54:48.508Z,5.35
2019-03-19T19:57:19.263Z,5.36
2019-03-19T19:59:48.451Z,5.33
2019-03-19T20:02:17.633Z,5.31
2019-03-19T20:04:46.732Z,5.31
2019-03-19T20:07:18.699Z,5.31
2019-03-19T20:09:47.767Z,5.30
2019-03-19T20:12:18.036Z,5.31
2019-03-19T20:14:49.268Z,5.29
2019-03-19T20:17:18.327Z,5.32
2019-03-19T20:19:47.242Z,5.29
2019-03-19T20:22:17.298Z,5.28
2019-03-19T20:24:46.336Z,5.28
2019-03-19T20:27:15.108Z,5.22
2019-03-19T20:29:45.080Z,5.21
2019-03-19T20:32:13.954Z,5.20
2019-03-19T20:34:42.935Z,5.20
2019-03-19T20:37:12.073Z,5.19
2019-03-19T20:39:41.893Z,5.18
2019-03-19T20:42:10.947Z,5.17
2019-03-19T20:44:40.090Z,5.18
2019-03-19T20:47:14.907Z,5.14
2019-03-19T20:49:48.084Z,5.09
2019-03-19T20:52:18.206Z,5.10
2019-03-19T20:54:47.238Z,5.05
2019-03-19T20:57:16.275Z,5.06
2019-03-19T20:59:45.124Z,5.01
2019-03-19T21:02:14.212Z,4.96
2019-03-19T21:04:44.519Z,4.95
2019-03-19T21:07:13.594Z,4.89
2019-03-19T21:09:43.153Z,4.86
2019-03-19T21:12:14.054Z,4.83
2019-03-19T21:14:43.231Z,4.79
2019-03-19T21:17:12.268Z,4.79
2019-03-19T21:19:42.429Z,4.78
2019-03-19T21:22:11.461Z,4.79
2019-03-19T21:24:42.610Z,4.78
2019-03-19T21:27:12.665Z,4.77
2019-03-19T21:29:41.816Z,4.74
2019-03-19T21:32:11.620Z,4.71
2019-03-19T21:34:40.546Z,4.71
2019-03-19T21:37:09.454Z,4.70
2019-03-19T21:39:38.340Z,4.67
2019-03-19T21:42:08.213Z,4.66
2019-03-19T21:44:37.257Z,4.62
2019-03-19T21:47:07.231Z,4.60
2019-03-19T21:49:36.330Z,4.56
2019-03-19T21:52:07.267Z,4.52
2019-03-19T21:54:36.265Z,4.45
2019-03-19T21:57:06.140Z,4.40
2019-03-19T21:59:35.505Z,4.31
2019-03-19T22:02:05.515Z,4.22
2019-03-19T22:04:34.598Z,4.19
2019-03-19T22:07:03.472Z,4.11
2019-03-19T22:09:32.318Z,3.99
2019-03-19T22:12:01.212Z,3.92
2019-03-19T22:14:30.089Z,3.83
2019-03-19T22:16:59.015Z,3.69
2019-03-19T22:19:28.994Z,3.69
2019-03-19T22:21:58.099Z,3.66
2019-03-19T22:24:27.090Z,3.65
2019-03-19T22:26:56.125Z,3.60
2019-03-19T22:29:24.987Z,3.55
2019-03-19T22:31:53.851Z,3.51
2019-03-19T22:34:22.831Z,3.48
2019-03-19T22:36:51.631Z,3.42
2019-03-19T22:39:26.304Z,3.38
2019-03-19T22:41:55.348Z,3.35
2019-03-19T22:44:26.785Z,3.33
2019-03-19T22:46:55.651Z,3.28
2019-03-19T22:49:25.552Z,3.24
2019-03-19T22:51:54.368Z,3.18
2019-03-19T22:54:23.202Z,3.16
2019-03-19T22:56:51.979Z,3.11
2019-03-19T22:59:20.860Z,3.12
2019-03-19T23:01:49.716Z,3.08
2019-03-19T23:04:26.914Z,3.02
2019-03-19T23:06:50.229Z,2.99
2019-03-19T23:09:19.111Z,2.98
2019-03-19T23:11:47.969Z,2.97
2019-03-19T23:14:16.705Z,2.94
2019-03-19T23:16:45.618Z,2.92
2019-03-19T23:19:14.612Z,2.92
2019-03-19T23:21:43.495Z,2.91
2019-03-19T23:24:12.461Z,2.89
2019-03-19T23:26:41.304Z,2.84
2019-03-19T23:29:10.123Z,2.82
2019-03-19T23:31:38.856Z,2.80
2019-03-19T23:34:07.680Z,2.77
2019-03-19T23:36:36.486Z,2.75
2019-03-19T23:39:06.653Z,2.73
2019-03-19T23:41:35.566Z,2.72
2019-03-19T23:44:04.753Z,2.70
2019-03-19T23:46:33.630Z,2.67
2019-03-19T23:49:02.498Z,2.65
2019-03-19T23:51:31.213Z,2.61
2019-03-19T23:53:59.998Z,2.58
2019-03-19T23:56:28.732Z,2.54
2019-03-19T23:58:57.627Z,2.52
